Gilby, North Dakota
Current Conditions -  °F | °C
As of 5:13 PM on Saturday 20 Dec 2014 (Local Time) from KRDR Reporting Station
Overcast Overcast  
Wind Chill: 18°   Ceiling: 400
Heat Index: 28°   Visibility: 7mi
Dew Point: 28°   Wind: 12mph
Humidity: 100%   Direction: 190°S
Pressure: 29.92"   Gusts: NA
Location:  48.09°N, 97.47°W
Report Text: KRDR 202313Z AUTO 19010KT 7SM R35/5500FT OVC004 M02/M02 A2992 RMK AO2
Loading
Personal Weather Stations






























Interactive Weather Map New forecast layout! Learn more

10-Day Weather Forecast

Advertisements
Track Severe Weather on mobile